createdAt,value
2019-01-20T00:00:18.287Z,101368.34
2019-01-20T00:02:46.954Z,101373.94
2019-01-20T00:05:16.228Z,101370.28
2019-01-20T00:07:44.847Z,101372.91
2019-01-20T00:10:14.473Z,101371.01
2019-01-20T00:12:43.108Z,101364.91
2019-01-20T00:15:17.325Z,101369.69
2019-01-20T00:17:45.963Z,101366.52
2019-01-20T00:20:14.654Z,101364.63
2019-01-20T00:22:43.268Z,101369.08
2019-01-20T00:25:12.136Z,101373.38
2019-01-20T00:27:40.837Z,101369.91
2019-01-20T00:30:12.196Z,101376.37
2019-01-20T00:32:40.870Z,101373.02
2019-01-20T00:35:09.450Z,101378.26
2019-01-20T00:37:38.051Z,101379.08
2019-01-20T00:40:09.529Z,101375.84
2019-01-20T00:42:39.247Z,101375.72
2019-01-20T00:45:10.885Z,101371.89
2019-01-20T00:47:39.609Z,101368.27
2019-01-20T00:50:10.692Z,101361.59
2019-01-20T00:52:39.313Z,101361.54
2019-01-20T00:55:10.907Z,101363.22
2019-01-20T00:57:40.696Z,101363.13
2019-01-20T01:00:16.084Z,101363.02
2019-01-20T01:02:44.803Z,101363.73
2019-01-20T01:05:14.181Z,101361.28
2019-01-20T01:07:42.825Z,101361.86
2019-01-20T01:10:11.828Z,101364.36
2019-01-20T01:12:40.920Z,101360.02
2019-01-20T01:15:11.490Z,101354.05
2019-01-20T01:17:40.039Z,101359.84
2019-01-20T01:20:11.572Z,101361.91
2019-01-20T01:22:40.184Z,101360.67
2019-01-20T01:25:10.415Z,101360.34
2019-01-20T01:27:39.026Z,101358.71
2019-01-20T01:30:10.532Z,101361.79
2019-01-20T01:32:39.114Z,101364.50
2019-01-20T01:35:08.246Z,101366.52
2019-01-20T01:37:36.737Z,101367.75
2019-01-20T01:40:08.539Z,101365.73
2019-01-20T01:42:37.140Z,101367.60
2019-01-20T01:45:11.849Z,101374.36
2019-01-20T01:47:40.488Z,101374.77
2019-01-20T01:50:09.997Z,101375.78
2019-01-20T01:52:38.618Z,101377.60
2019-01-20T01:55:08.835Z,101374.20
2019-01-20T01:57:37.389Z,101367.75
2019-01-20T02:00:09.466Z,101371.82
2019-01-20T02:02:38.100Z,101378.78
2019-01-20T02:05:08.716Z,101381.38
2019-01-20T02:07:37.241Z,101375.21
2019-01-20T02:10:11.615Z,101382.25
2019-01-20T02:12:40.342Z,101378.70
2019-01-20T02:15:10.945Z,101382.78
2019-01-20T02:17:40.007Z,101393.23
2019-01-20T02:20:11.805Z,101395.23
2019-01-20T02:22:40.386Z,101393.67
2019-01-20T02:25:09.000Z,101393.70
2019-01-20T02:27:37.721Z,101396.48
2019-01-20T02:30:09.218Z,101390.23
2019-01-20T02:32:38.045Z,101389.56
2019-01-20T02:35:06.829Z,101391.39
2019-01-20T02:37:35.391Z,101387.58
2019-01-20T02:40:06.020Z,101391.91
2019-01-20T02:42:34.601Z,101390.72
2019-01-20T02:45:03.289Z,101387.06
2019-01-20T02:47:31.928Z,101385.78
2019-01-20T02:50:00.470Z,101380.48
2019-01-20T02:52:29.058Z,101389.42
2019-01-20T02:54:57.679Z,101389.43
2019-01-20T02:57:26.271Z,101388.27
2019-01-20T02:59:54.886Z,101388.52
2019-01-20T03:02:23.479Z,101392.55
2019-01-20T03:04:52.600Z,101388.39
2019-01-20T03:07:21.193Z,101389.66
2019-01-20T03:09:49.736Z,101395.15
2019-01-20T03:12:18.375Z,101382.12
2019-01-20T03:14:46.960Z,101384.29
2019-01-20T03:17:15.559Z,101380.10
2019-01-20T03:19:44.171Z,101380.48
2019-01-20T03:22:12.690Z,101381.48
2019-01-20T03:24:41.314Z,101387.80
2019-01-20T03:27:09.919Z,101386.64
2019-01-20T03:29:38.486Z,101387.80
2019-01-20T03:32:07.115Z,101390.20
2019-01-20T03:34:35.740Z,101386.36
2019-01-20T03:37:04.344Z,101386.53
2019-01-20T03:39:32.947Z,101392.16
2019-01-20T03:42:01.599Z,101391.19
2019-01-20T03:44:30.184Z,101395.37
2019-01-20T03:46:58.813Z,101397.42
2019-01-20T03:49:27.394Z,101393.09
2019-01-20T03:51:55.886Z,101396.22
2019-01-20T03:54:24.403Z,101394.89
2019-01-20T03:56:53.300Z,101397.28
2019-01-20T03:59:21.822Z,101400.32
2019-01-20T04:01:50.441Z,101396.37
2019-01-20T04:04:19.062Z,101389.86
2019-01-20T04:06:47.646Z,101396.47
2019-01-20T04:09:16.262Z,101393.01
2019-01-20T04:11:45.582Z,101396.30
2019-01-20T04:14:14.116Z,101393.96
2019-01-20T04:16:42.759Z,101388.16
2019-01-20T04:19:11.261Z,101382.33
2019-01-20T04:21:39.910Z,101375.38
2019-01-20T04:24:08.419Z,101379.90
2019-01-20T04:26:37.034Z,101376.25
2019-01-20T04:29:05.610Z,101379.13
2019-01-20T04:31:34.194Z,101373.17
2019-01-20T04:34:02.893Z,101375.50
2019-01-20T04:36:31.401Z,101371.47
2019-01-20T04:38:59.980Z,101372.73
2019-01-20T04:41:28.696Z,101372.29
2019-01-20T04:43:57.335Z,101383.66
2019-01-20T04:46:25.884Z,101380.69
2019-01-20T04:48:54.354Z,101382.23
2019-01-20T04:51:22.906Z,101385.36
2019-01-20T04:53:51.670Z,101381.80
2019-01-20T04:56:20.287Z,101386.19
2019-01-20T04:58:48.890Z,101383.86
2019-01-20T05:01:17.496Z,101386.61
2019-01-20T05:03:46.171Z,101388.88
2019-01-20T05:06:14.776Z,101390.69
2019-01-20T05:08:43.280Z,101387.13
2019-01-20T05:11:11.894Z,101386.70
2019-01-20T05:13:40.456Z,101392.03
2019-01-20T05:16:09.062Z,101396.00
2019-01-20T05:18:37.643Z,101401.80
2019-01-20T05:21:06.282Z,101397.72
2019-01-20T05:23:34.793Z,101399.89
2019-01-20T05:26:03.255Z,101403.41
2019-01-20T05:28:31.906Z,101403.23
2019-01-20T05:31:00.486Z,101405.16
2019-01-20T05:33:29.129Z,101406.56
2019-01-20T05:35:57.704Z,101409.66
2019-01-20T05:38:26.321Z,101410.34
2019-01-20T05:40:54.910Z,101413.16
2019-01-20T05:43:23.455Z,101415.05
2019-01-20T05:45:52.087Z,101417.59
2019-01-20T05:48:20.683Z,101406.82
2019-01-20T05:50:49.242Z,101406.92
2019-01-20T05:53:17.689Z,101416.34
2019-01-20T05:55:46.290Z,101409.07
2019-01-20T05:58:14.758Z,101410.77
2019-01-20T06:00:43.344Z,101418.64
2019-01-20T06:03:11.958Z,101417.64
2019-01-20T06:05:40.538Z,101419.45
2019-01-20T06:08:09.187Z,101421.34
2019-01-20T06:10:37.809Z,101423.33
2019-01-20T06:13:06.354Z,101424.66
2019-01-20T06:15:34.903Z,101425.11
2019-01-20T06:18:03.513Z,101425.16
2019-01-20T06:20:32.098Z,101426.29
2019-01-20T06:23:00.721Z,101430.81
2019-01-20T06:25:29.238Z,101433.80
2019-01-20T06:27:57.728Z,101439.11
2019-01-20T06:30:28.684Z,101440.14
2019-01-20T06:32:57.213Z,101434.72
2019-01-20T06:35:25.791Z,101436.67
2019-01-20T06:37:54.394Z,101440.37
2019-01-20T06:40:22.965Z,101443.75
2019-01-20T06:42:51.549Z,101444.25
2019-01-20T06:45:20.272Z,101442.42
2019-01-20T06:47:48.796Z,101447.53
2019-01-20T06:50:21.633Z,101452.42
2019-01-20T06:52:50.226Z,101451.61
2019-01-20T06:55:18.849Z,101454.68
2019-01-20T06:57:47.367Z,101457.83
2019-01-20T07:00:18.381Z,101457.28
2019-01-20T07:02:47.006Z,101462.91
2019-01-20T07:05:15.588Z,101464.09
2019-01-20T07:07:44.204Z,101467.20
2019-01-20T07:10:14.807Z,101469.45
2019-01-20T07:12:43.434Z,101467.16
2019-01-20T07:15:14.625Z,101470.36
2019-01-20T07:17:43.285Z,101471.39
2019-01-20T07:20:13.182Z,101472.55
2019-01-20T07:22:41.808Z,101477.98
2019-01-20T07:25:10.711Z,101482.86
2019-01-20T07:27:39.335Z,101480.50
2019-01-20T07:30:16.407Z,101481.37
2019-01-20T07:32:45.019Z,101481.42
2019-01-20T07:35:14.348Z,101487.72
2019-01-20T07:37:42.918Z,101485.09
2019-01-20T07:40:17.220Z,101490.09
2019-01-20T07:42:45.815Z,101496.06
2019-01-20T07:45:16.066Z,101493.23
2019-01-20T07:47:44.623Z,101498.70
2019-01-20T07:50:20.771Z,101502.52
2019-01-20T07:52:49.368Z,101499.52
2019-01-20T07:55:17.989Z,101508.11
2019-01-20T07:57:46.588Z,101508.58
2019-01-20T08:00:17.433Z,101517.55
2019-01-20T08:02:46.020Z,101520.51
2019-01-20T08:05:14.963Z,101529.19
2019-01-20T08:07:43.564Z,101530.58
2019-01-20T08:10:18.213Z,101529.77
2019-01-20T08:12:46.819Z,101533.59
2019-01-20T08:15:17.018Z,101532.83
2019-01-20T08:17:45.627Z,101541.38
2019-01-20T08:20:19.318Z,101544.23
2019-01-20T08:22:47.943Z,101549.30
2019-01-20T08:25:18.049Z,101554.73
2019-01-20T08:27:46.656Z,101556.09
2019-01-20T08:30:23.396Z,101561.62
2019-01-20T08:32:52.013Z,101561.85
2019-01-20T08:35:20.535Z,101566.92
2019-01-20T08:37:49.156Z,101567.92
2019-01-20T08:40:25.935Z,101568.84
2019-01-20T08:42:54.467Z,101572.64
2019-01-20T08:45:46.606Z,101572.23
2019-01-20T08:48:18.135Z,101577.52
2019-01-20T08:50:46.524Z,101568.89
2019-01-20T08:53:15.096Z,101577.16
2019-01-20T08:55:43.691Z,101580.31
2019-01-20T08:58:12.298Z,101575.24
2019-01-20T09:00:40.887Z,101578.42
2019-01-20T09:03:09.418Z,101565.03
2019-01-20T09:05:38.091Z,101567.95
2019-01-20T09:08:06.797Z,101563.59
2019-01-20T09:10:35.278Z,101581.84
2019-01-20T09:13:05.543Z,101580.36
2019-01-20T09:15:34.084Z,101588.34
2019-01-20T09:18:02.768Z,101598.63
2019-01-20T09:20:31.354Z,101598.45
2019-01-20T09:22:59.951Z,101603.63
2019-01-20T09:25:28.704Z,101602.63
2019-01-20T09:27:57.299Z,101603.83
2019-01-20T09:30:25.895Z,101610.03
2019-01-20T09:32:54.544Z,101607.72
2019-01-20T09:35:23.131Z,101614.56
2019-01-20T09:37:51.830Z,101618.02
2019-01-20T09:40:20.406Z,101614.62
2019-01-20T09:42:49.057Z,101617.13
2019-01-20T09:45:29.513Z,101621.44
2019-01-20T09:47:58.908Z,101626.07
2019-01-20T09:50:27.658Z,101629.55
2019-01-20T09:52:56.362Z,101624.56
2019-01-20T09:55:24.980Z,101627.22
2019-01-20T09:57:53.604Z,101635.98
2019-01-20T10:00:27.445Z,101627.24
2019-01-20T10:02:56.249Z,101632.98
2019-01-20T10:05:24.916Z,101629.03
2019-01-20T10:07:53.556Z,101641.89
2019-01-20T10:10:22.145Z,101635.05
2019-01-20T10:12:50.681Z,101640.03
2019-01-20T10:15:19.302Z,101642.34
2019-01-20T10:17:47.925Z,101641.28
2019-01-20T10:20:27.671Z,101637.45
2019-01-20T10:22:56.287Z,101641.73
2019-01-20T10:25:24.871Z,101643.25
2019-01-20T10:27:53.511Z,101634.70
2019-01-20T10:30:24.649Z,101637.83
2019-01-20T10:32:53.456Z,101641.91
2019-01-20T10:35:23.708Z,101641.91
2019-01-20T10:37:53.115Z,101647.98
2019-01-20T10:40:21.715Z,101648.91
2019-01-20T10:42:50.344Z,101645.30
2019-01-20T10:45:19.386Z,101649.77
2019-01-20T10:47:48.020Z,101645.69
2019-01-20T10:50:18.122Z,101644.25
2019-01-20T10:52:46.856Z,101643.20
2019-01-20T10:55:15.457Z,101643.55
2019-01-20T10:57:44.095Z,101643.59
2019-01-20T11:00:24.371Z,101638.94
2019-01-20T11:02:52.981Z,101641.25
2019-01-20T11:05:25.046Z,101643.17
2019-01-20T11:07:52.164Z,101642.00
2019-01-20T11:10:20.742Z,101644.17
2019-01-20T11:12:49.324Z,101645.95
2019-01-20T11:15:18.291Z,101638.45
2019-01-20T11:17:46.984Z,101644.78
2019-01-20T11:20:18.171Z,101639.17
2019-01-20T11:22:46.772Z,101637.44
2019-01-20T11:25:20.960Z,101639.47
2019-01-20T11:27:49.707Z,101647.36
2019-01-20T11:30:18.521Z,101645.08
2019-01-20T11:32:47.162Z,101648.67
2019-01-20T11:35:18.546Z,101645.34
2019-01-20T11:37:48.052Z,101649.22
2019-01-20T11:40:16.843Z,101650.20
2019-01-20T11:42:45.463Z,101651.61
2019-01-20T11:45:16.982Z,101646.80
2019-01-20T11:47:45.525Z,101649.89
2019-01-20T11:50:14.996Z,101645.92
2019-01-20T11:52:43.606Z,101640.67
2019-01-20T11:55:15.427Z,101641.48
2019-01-20T11:57:44.060Z,101640.97
2019-01-20T12:00:21.271Z,101639.69
2019-01-20T12:02:50.057Z,101641.59
2019-01-20T12:05:19.244Z,101634.72
2019-01-20T12:07:47.836Z,101630.77
2019-01-20T12:10:16.656Z,101633.25
2019-01-20T12:12:46.903Z,101634.34
2019-01-20T12:15:16.906Z,101641.20
2019-01-20T12:17:45.705Z,101633.83
2019-01-20T12:20:15.852Z,101634.70
2019-01-20T12:22:44.512Z,101632.42
2019-01-20T12:25:18.163Z,101628.56
2019-01-20T12:27:46.756Z,101628.32
2019-01-20T12:30:20.924Z,101631.67
2019-01-20T12:32:49.568Z,101626.25
2019-01-20T12:35:18.273Z,101632.11
2019-01-20T12:37:46.905Z,101633.73
2019-01-20T12:40:21.772Z,101631.67
2019-01-20T12:42:50.389Z,101629.58
2019-01-20T12:45:18.977Z,101636.45
2019-01-20T12:47:47.645Z,101640.34
2019-01-20T12:50:17.975Z,101638.99
2019-01-20T12:52:46.576Z,101642.31
2019-01-20T12:55:16.205Z,101642.12
2019-01-20T12:57:44.835Z,101641.98
2019-01-20T13:00:16.370Z,101639.64
2019-01-20T13:02:44.964Z,101630.78
2019-01-20T13:05:13.782Z,101638.16
2019-01-20T13:07:42.574Z,101630.11
2019-01-20T13:10:16.240Z,101632.45
2019-01-20T13:12:44.851Z,101638.28
2019-01-20T13:15:22.192Z,101629.60
2019-01-20T13:17:50.921Z,101629.97
2019-01-20T13:20:21.976Z,101632.28
2019-01-20T13:22:50.621Z,101633.27
2019-01-20T13:25:23.871Z,101628.61
2019-01-20T13:27:52.486Z,101632.79
2019-01-20T13:30:22.970Z,101626.08
2019-01-20T13:32:51.601Z,101632.67
2019-01-20T13:35:21.016Z,101628.08
2019-01-20T13:37:57.649Z,101630.55
2019-01-20T13:40:29.564Z,101634.91
2019-01-20T13:42:58.104Z,101639.05
2019-01-20T13:45:26.819Z,101629.24
2019-01-20T13:47:55.427Z,101639.61
2019-01-20T13:50:24.058Z,101641.45
2019-01-20T13:52:52.704Z,101636.68
2019-01-20T13:55:22.112Z,101636.95
2019-01-20T13:57:50.671Z,101640.22
2019-01-20T14:00:21.461Z,101644.25
2019-01-20T14:02:50.073Z,101640.63
2019-01-20T14:05:18.693Z,101646.67
2019-01-20T14:07:47.336Z,101642.74
2019-01-20T14:10:18.426Z,101642.19
2019-01-20T14:12:47.003Z,101633.77
2019-01-20T14:15:16.531Z,101631.53
2019-01-20T14:17:46.135Z,101633.29
2019-01-20T14:20:20.194Z,101636.44
2019-01-20T14:22:48.812Z,101643.55
2019-01-20T14:25:19.856Z,101640.26
2019-01-20T14:27:48.481Z,101644.25
2019-01-20T14:30:25.320Z,101639.78
2019-01-20T14:32:53.914Z,101641.05
2019-01-20T14:35:22.562Z,101642.84
2019-01-20T14:37:51.176Z,101647.19
2019-01-20T14:40:20.476Z,101644.39
2019-01-20T14:42:50.778Z,101649.00
2019-01-20T14:45:20.010Z,101653.94
2019-01-20T14:47:49.069Z,101652.57
2019-01-20T14:50:25.773Z,101653.10
2019-01-20T14:52:54.709Z,101653.20
2019-01-20T14:55:24.005Z,101651.77
2019-01-20T14:57:52.604Z,101653.16
2019-01-20T15:00:35.382Z,101654.16
2019-01-20T15:03:04.056Z,101657.47
2019-01-20T15:05:33.703Z,101662.55
2019-01-20T15:08:02.635Z,101662.83
2019-01-20T15:10:31.210Z,101666.63
2019-01-20T15:12:59.849Z,101668.01
2019-01-20T15:15:37.189Z,101669.26
2019-01-20T15:18:06.364Z,101669.70
2019-01-20T15:20:34.968Z,101680.68
2019-01-20T15:23:04.286Z,101685.66
2019-01-20T15:25:32.894Z,101683.66
2019-01-20T15:28:01.533Z,101688.55
2019-01-20T15:30:34.176Z,101689.33
2019-01-20T15:33:04.762Z,101691.09
2019-01-20T15:35:34.465Z,101697.09
2019-01-20T15:38:03.190Z,101691.91
2019-01-20T15:40:31.770Z,101701.59
2019-01-20T15:43:00.377Z,101698.33
2019-01-20T15:45:29.026Z,101706.42
2019-01-20T15:47:57.616Z,101711.89
2019-01-20T15:50:31.097Z,101713.74
2019-01-20T15:52:59.799Z,101727.41
2019-01-20T15:55:28.370Z,101725.00
2019-01-20T15:57:57.020Z,101734.23
2019-01-20T16:00:28.075Z,101738.78
2019-01-20T16:02:57.204Z,101737.66
2019-01-20T16:05:26.976Z,101735.61
2019-01-20T16:07:55.603Z,101751.72
2019-01-20T16:10:25.447Z,101750.62
2019-01-20T16:12:54.212Z,101760.28
2019-01-20T16:15:25.394Z,101765.41
2019-01-20T16:17:55.004Z,101767.11
2019-01-20T16:20:24.328Z,101763.83
2019-01-20T16:22:53.050Z,101780.63
2019-01-20T16:25:24.048Z,101780.27
2019-01-20T16:27:52.745Z,101779.03
2019-01-20T16:30:29.428Z,101788.85
2019-01-20T16:32:57.989Z,101796.30
2019-01-20T16:35:26.934Z,101796.09
2019-01-20T16:37:56.667Z,101798.34
2019-01-20T16:40:26.164Z,101794.17
2019-01-20T16:42:54.789Z,101800.33
2019-01-20T16:45:31.912Z,101799.26
2019-01-20T16:47:56.871Z,101797.98
2019-01-20T16:50:26.052Z,101800.66
2019-01-20T16:52:55.060Z,101797.95
2019-01-20T16:55:23.714Z,101808.84
2019-01-20T16:57:52.329Z,101803.36
2019-01-20T17:00:29.327Z,101801.59
2019-01-20T17:02:57.934Z,101806.24
2019-01-20T17:05:27.185Z,101810.84
2019-01-20T17:07:55.820Z,101806.87
2019-01-20T17:10:31.348Z,101812.30
2019-01-20T17:13:00.044Z,101812.05
2019-01-20T17:15:30.995Z,101812.50
2019-01-20T17:17:59.596Z,101809.22
2019-01-20T17:20:28.183Z,101813.72
2019-01-20T17:22:56.801Z,101808.91
2019-01-20T17:25:25.471Z,101810.12
2019-01-20T17:27:54.089Z,101817.44
2019-01-20T17:30:25.312Z,101811.57
2019-01-20T17:32:54.225Z,101819.31
2019-01-20T17:35:22.925Z,101819.39
2019-01-20T17:37:51.565Z,101823.33
2019-01-20T17:40:22.176Z,101827.87
2019-01-20T17:42:50.776Z,101834.47
2019-01-20T17:45:25.180Z,101834.58
2019-01-20T17:47:53.902Z,101833.28
2019-01-20T17:50:27.676Z,101835.40
2019-01-20T17:52:56.391Z,101833.05
2019-01-20T17:55:25.049Z,101837.17
2019-01-20T17:57:53.692Z,101847.23
2019-01-20T18:00:28.866Z,101843.17
2019-01-20T18:02:57.481Z,101846.33
2019-01-20T18:05:26.481Z,101849.84
2019-01-20T18:07:55.116Z,101849.88
2019-01-20T18:10:23.707Z,101851.84
2019-01-20T18:12:53.443Z,101859.38
2019-01-20T18:15:26.492Z,101856.00
2019-01-20T18:17:55.163Z,101865.48
2019-01-20T18:20:29.134Z,101867.66
2019-01-20T18:22:57.777Z,101870.55
2019-01-20T18:25:26.828Z,101863.97
2019-01-20T18:27:55.465Z,101868.14
2019-01-20T18:30:29.470Z,101866.72
2019-01-20T18:32:58.125Z,101873.67
2019-01-20T18:35:27.716Z,101877.64
2019-01-20T18:37:56.362Z,101878.63
2019-01-20T18:40:26.205Z,101879.47
2019-01-20T18:42:54.811Z,101879.84
2019-01-20T18:45:26.363Z,101885.23
2019-01-20T18:47:54.987Z,101890.49
2019-01-20T18:50:31.870Z,101898.09
2019-01-20T18:53:00.508Z,101904.94
2019-01-20T18:55:29.223Z,101908.52
2019-01-20T18:57:57.863Z,101908.15
2019-01-20T19:00:32.265Z,101901.63
2019-01-20T19:03:00.863Z,101904.63
2019-01-20T19:05:30.679Z,101902.75
2019-01-20T19:07:59.296Z,101907.82
2019-01-20T19:10:28.041Z,101912.50
2019-01-20T19:12:56.696Z,101909.45
2019-01-20T19:15:25.448Z,101913.67
2019-01-20T19:17:54.456Z,101909.97
2019-01-20T19:20:24.447Z,101913.01
2019-01-20T19:22:57.783Z,101923.02
2019-01-20T19:25:26.380Z,101926.23
2019-01-20T19:27:54.946Z,101930.24
2019-01-20T19:30:28.972Z,101927.72
2019-01-20T19:32:57.566Z,101932.77
2019-01-20T19:35:28.233Z,101934.64
2019-01-20T19:37:56.929Z,101927.91
2019-01-20T19:40:25.574Z,101930.20
2019-01-20T19:42:54.174Z,101933.06
2019-01-20T19:45:22.800Z,101935.56
2019-01-20T19:47:51.487Z,101942.00
2019-01-20T19:50:21.040Z,101943.17
2019-01-20T19:52:49.691Z,101949.19
2019-01-20T19:55:24.259Z,101949.77
2019-01-20T19:57:52.966Z,101957.13
2019-01-20T20:00:26.508Z,101963.37
2019-01-20T20:02:55.157Z,101968.20
2019-01-20T20:05:23.833Z,101973.57
2019-01-20T20:07:53.579Z,101978.63
2019-01-20T20:10:26.709Z,101974.95
2019-01-20T20:12:56.530Z,101976.05
2019-01-20T20:15:26.521Z,101973.44
2019-01-20T20:17:55.150Z,101972.15
2019-01-20T20:20:23.960Z,101966.47
2019-01-20T20:22:52.554Z,101966.45
2019-01-20T20:25:22.767Z,101970.35
2019-01-20T20:27:51.891Z,101982.42
2019-01-20T20:30:22.689Z,101984.70
2019-01-20T20:32:51.389Z,101988.56
2019-01-20T20:35:20.039Z,101986.73
2019-01-20T20:37:48.702Z,101995.78
2019-01-20T20:40:20.636Z,101992.69
2019-01-20T20:42:49.225Z,101995.47
2019-01-20T20:45:20.417Z,101997.38
2019-01-20T20:47:49.016Z,102004.87
2019-01-20T20:50:18.453Z,102010.13
2019-01-20T20:52:47.056Z,102015.37
2019-01-20T20:55:15.690Z,102012.45
2019-01-20T20:57:44.448Z,102015.08
2019-01-20T21:00:27.582Z,102015.40
2019-01-20T21:02:56.205Z,102024.30
2019-01-20T21:05:24.863Z,102031.06
2019-01-20T21:07:53.570Z,102030.09
2019-01-20T21:10:22.287Z,102019.19
2019-01-20T21:12:50.875Z,102020.33
2019-01-20T21:15:19.504Z,102020.69
2019-01-20T21:17:48.705Z,102031.90
2019-01-20T21:20:22.326Z,102038.09
2019-01-20T21:22:50.962Z,102042.03
2019-01-20T21:25:19.622Z,102036.56
2019-01-20T21:27:48.205Z,102039.94
2019-01-20T21:30:22.625Z,102045.16
2019-01-20T21:32:51.204Z,102035.23
2019-01-20T21:35:19.787Z,102042.20
2019-01-20T21:37:48.832Z,102046.86
2019-01-20T21:40:19.378Z,102047.13
2019-01-20T21:42:48.160Z,102040.09
2019-01-20T21:45:18.088Z,102041.95
2019-01-20T21:47:46.769Z,102047.63
2019-01-20T21:50:23.358Z,102053.45
2019-01-20T21:52:51.959Z,102050.22
2019-01-20T21:55:20.594Z,102057.59
2019-01-20T21:57:49.185Z,102062.35
2019-01-20T22:00:22.930Z,102068.42
2019-01-20T22:02:51.549Z,102078.77
2019-01-20T22:05:20.155Z,102077.95
2019-01-20T22:07:48.803Z,102079.52
2019-01-20T22:10:22.231Z,102082.67
2019-01-20T22:12:51.031Z,102092.65
2019-01-20T22:15:19.860Z,102091.31
2019-01-20T22:17:48.858Z,102094.14
2019-01-20T22:20:21.649Z,102096.09
2019-01-20T22:22:50.660Z,102093.29
2019-01-20T22:25:19.251Z,102096.19
2019-01-20T22:27:47.890Z,102095.38
2019-01-20T22:30:21.868Z,102094.37
2019-01-20T22:32:50.559Z,102093.77
2019-01-20T22:35:19.183Z,102095.63
2019-01-20T22:37:47.789Z,102095.93
2019-01-20T22:40:18.489Z,102093.55
2019-01-20T22:42:47.074Z,102100.67
2019-01-20T22:45:18.245Z,102094.05
2019-01-20T22:47:46.831Z,102105.34
2019-01-20T22:50:15.468Z,102107.38
2019-01-20T22:52:44.050Z,102103.38
2019-01-20T22:55:14.468Z,102095.93
2019-01-20T22:57:43.075Z,102101.19
2019-01-20T23:00:28.153Z,102108.27
2019-01-20T23:02:56.723Z,102106.02
2019-01-20T23:05:25.338Z,102113.95
2019-01-20T23:07:53.990Z,102111.55
2019-01-20T23:10:22.633Z,102109.11
2019-01-20T23:12:51.238Z,102106.23
2019-01-20T23:15:19.863Z,102108.74
2019-01-20T23:17:48.606Z,102118.72
2019-01-20T23:20:18.086Z,102111.97
2019-01-20T23:22:47.001Z,102111.48
2019-01-20T23:25:15.628Z,102116.67
2019-01-20T23:27:44.311Z,102116.55
2019-01-20T23:30:17.372Z,102123.00
2019-01-20T23:32:45.948Z,102123.82
2019-01-20T23:35:14.859Z,102125.39
2019-01-20T23:37:43.452Z,102125.83
2019-01-20T23:40:14.052Z,102124.33
2019-01-20T23:42:42.759Z,102127.80
2019-01-20T23:45:12.422Z,102133.00
2019-01-20T23:47:41.668Z,102132.03
2019-01-20T23:50:15.554Z,102124.96
2019-01-20T23:52:44.224Z,102128.12
2019-01-20T23:55:13.254Z,102124.71
2019-01-20T23:57:42.065Z,102123.70
